Time;durP1;ratioP1;P1;durP2;ratioP2;P2;SDS_P1;SDS_P2;PMS_P1;PMS_P2;Temp;Humidity;BMP_temperature;BMP_pressure;BME280_temperature;BME280_humidity;BME280_pressure;Samples;Min_cycle;Max_cycle;Signal;HPM_P1;HPM_P2
2022/08/22 00:00:21;;;;;;;7.55;4.20;;;15.90;99.90;;;;;;5088124;28;20022;-55
2022/08/22 00:03:15;;;;;;;8.82;3.97;;;15.90;99.90;;;;;;5089122;28;20027;-55
2022/08/22 00:06:17;;;;;;;8.40;4.20;;;16.00;99.90;;;;;;5079902;28;20111;-54
2022/08/22 00:09:08;;;;;;;5.47;3.67;;;16.00;99.90;;;;;;5089174;28;20020;-54
2022/08/22 00:12:00;;;;;;;6.72;3.72;;;16.00;99.90;;;;;;5088975;28;20128;-55
2022/08/22 00:14:36;;;;;;;5.25;3.95;;;15.90;99.90;;;;;;5087763;28;20028;-55
2022/08/22 00:17:16;;;;;;;8.77;4.65;;;15.90;99.90;;;;;;5071975;28;20032;-55
2022/08/22 00:20:16;;;;;;;8.77;4.87;;;15.90;99.90;;;;;;5068827;28;20054;-55
2022/08/22 00:22:47;;;;;;;6.57;3.92;;;15.90;99.90;;;;;;5068068;28;20291;-55
2022/08/22 00:25:36;;;;;;;8.90;4.68;;;15.90;99.90;;;;;;5068582;28;20191;-54
2022/08/22 00:28:13;;;;;;;7.35;4.05;;;15.90;99.90;;;;;;5067459;28;20034;-54
2022/08/22 00:31:01;;;;;;;8.90;4.50;;;15.90;99.90;;;;;;5067786;28;20036;-54
2022/08/22 00:33:32;;;;;;;9.95;4.22;;;15.90;99.90;;;;;;5068789;28;20556;-54
2022/08/22 00:36:23;;;;;;;10.00;4.32;;;15.80;99.90;;;;;;5068897;28;20111;-54
2022/08/22 00:39:14;;;;;;;6.88;4.00;;;15.80;99.90;;;;;;5067387;28;20056;-54
2022/08/22 00:41:48;;;;;;;7.45;4.13;;;15.80;99.90;;;;;;5067668;28;20033;-54
2022/08/22 00:44:43;;;;;;;6.50;4.47;;;15.80;99.90;;;;;;5067788;28;20069;-54
2022/08/22 00:47:39;;;;;;;14.48;4.93;;;15.70;99.90;;;;;;5078872;28;20020;-54
2022/08/22 00:50:43;;;;;;;10.95;4.47;;;15.70;99.90;;;;;;5088629;28;20016;-54
2022/08/22 00:53:36;;;;;;;6.63;4.10;;;15.60;99.90;;;;;;5088558;28;20056;-54
2022/08/22 00:56:28;;;;;;;8.00;4.43;;;15.60;99.90;;;;;;5088570;28;20066;-54
2022/08/22 00:59:20;;;;;;;6.70;4.00;;;15.60;99.90;;;;;;5082526;28;20046;-54
2022/08/22 01:02:17;;;;;;;6.03;3.60;;;15.60;99.90;;;;;;5088091;28;20142;-54
2022/08/22 01:05:01;;;;;;;7.45;3.97;;;15.50;99.90;;;;;;5073473;28;20040;-54
2022/08/22 01:08:12;;;;;;;6.40;4.38;;;15.40;99.90;;;;;;5088515;28;20051;-54
2022/08/22 01:11:19;;;;;;;5.35;4.03;;;15.40;99.90;;;;;;5087756;28;20111;-54
2022/08/22 01:14:22;;;;;;;9.48;4.80;;;15.40;99.90;;;;;;5045360;28;20033;-54
2022/08/22 01:17:04;;;;;;;4.72;3.65;;;15.40;99.90;;;;;;5069832;28;20453;-54
2022/08/22 01:20:09;;;;;;;6.50;3.97;;;15.40;99.90;;;;;;5068046;28;20039;-54
2022/08/22 01:23:12;;;;;;;7.15;3.50;;;15.40;99.90;;;;;;5067726;28;20478;-54
2022/08/22 01:25:59;;;;;;;6.32;3.85;;;15.40;99.90;;;;;;5068588;28;20035;-54
2022/08/22 01:28:56;;;;;;;7.75;4.07;;;15.30;99.90;;;;;;5068519;28;20051;-54
2022/08/22 01:31:52;;;;;;;4.78;4.03;;;15.30;99.90;;;;;;5032821;28;20033;-54
2022/08/22 01:34:41;;;;;;;6.45;3.80;;;15.20;99.90;;;;;;5069792;28;20054;-54
2022/08/22 01:37:23;;;;;;;5.90;4.03;;;15.20;99.90;;;;;;5071656;28;20533;-54
2022/08/22 01:40:26;;;;;;;9.77;3.65;;;15.20;99.90;;;;;;5071914;28;20038;-54
2022/08/22 01:43:18;;;;;;;7.47;4.35;;;15.10;99.90;;;;;;5071178;28;20459;-54
2022/08/22 01:45:47;;;;;;;5.15;3.85;;;15.10;99.90;;;;;;5078641;28;20028;-54
2022/08/22 01:48:22;;;;;;;6.15;3.70;;;15.10;99.90;;;;;;5088752;28;20024;-53
2022/08/22 01:50:51;;;;;;;5.93;3.60;;;15.00;99.90;;;;;;5090036;28;20028;-53
2022/08/22 01:53:35;;;;;;;5.72;4.20;;;14.90;99.90;;;;;;5091797;28;20372;-54
2022/08/22 01:56:14;;;;;;;8.13;3.65;;;14.90;99.90;;;;;;5091948;28;20028;-55
2022/08/22 01:58:55;;;;;;;5.10;3.45;;;14.80;99.90;;;;;;5091571;28;20039;-54
2022/08/22 02:01:48;;;;;;;4.55;4.10;;;14.70;99.90;;;;;;5089822;28;20121;-54
2022/08/22 02:04:59;;;;;;;6.95;4.07;;;14.70;99.90;;;;;;5091443;28;20498;-54
2022/08/22 02:07:29;;;;;;;;;;;14.60;99.90;;;;;;5075960;28;20106;-54
2022/08/22 02:10:12;;;;;;;6.40;3.95;;;14.50;99.90;;;;;;5073688;28;19909;-54
2022/08/22 02:12:45;;;;;;;8.90;4.78;;;14.40;99.90;;;;;;5069191;28;20102;-54
2022/08/22 02:15:39;;;;;;;6.65;4.93;;;14.40;99.90;;;;;;5072046;28;20028;-54
2022/08/22 02:18:04;;;;;;;6.03;4.65;;;14.30;99.90;;;;;;5067965;28;20510;-53
2022/08/22 02:20:53;;;;;;;5.72;4.45;;;14.30;99.90;;;;;;5070556;28;20107;-53
2022/08/22 02:23:45;;;;;;;4.25;3.67;;;14.40;99.90;;;;;;5070082;28;20012;-54
2022/08/22 02:26:44;;;;;;;6.00;4.75;;;14.40;99.90;;;;;;5069137;28;20511;-54
2022/08/22 02:29:15;;;;;;;6.63;4.60;;;14.40;99.90;;;;;;5068641;28;20031;-54
2022/08/22 02:32:07;;;;;;;7.18;4.47;;;14.30;99.90;;;;;;5067376;28;20027;-53
2022/08/22 02:35:02;;;;;;;5.80;4.40;;;14.30;99.90;;;;;;5065070;28;20581;-53
2022/08/22 02:37:47;;;;;;;7.68;5.63;;;14.30;99.90;;;;;;5049053;28;20043;-54
2022/08/22 02:40:29;;;;;;;5.57;5.05;;;14.40;99.90;;;;;;5070408;28;20400;-54
2022/08/22 02:43:19;;;;;;;5.32;4.80;;;14.30;99.90;;;;;;5070377;28;20051;-54
2022/08/22 02:45:56;;;;;;;7.40;5.43;;;14.30;99.90;;;;;;5076205;28;20282;-53
2022/08/22 02:48:43;;;;;;;8.13;5.32;;;14.30;99.90;;;;;;5088850;28;20032;-54
2022/08/22 02:51:31;;;;;;;7.50;5.53;;;14.30;99.90;;;;;;5090554;28;20055;-54
2022/08/22 02:54:05;;;;;;;10.20;5.93;;;14.30;99.90;;;;;;5090313;28;20020;-54
2022/08/22 02:56:39;;;;;;;6.10;4.65;;;14.30;99.90;;;;;;5090624;28;20427;-54
2022/08/22 02:59:22;;;;;;;6.32;4.72;;;14.20;99.90;;;;;;5090652;28;20491;-54
2022/08/22 03:01:47;;;;;;;6.05;4.68;;;14.20;99.90;;;;;;5089859;28;20023;-54
2022/08/22 03:04:21;;;;;;;5.43;4.88;;;14.20;99.90;;;;;;5090438;28;20145;-54
2022/08/22 03:07:08;;;;;;;9.23;5.45;;;14.10;99.90;;;;;;5090528;28;20024;-54
2022/08/22 03:10:09;;;;;;;7.40;5.00;;;14.10;99.90;;;;;;5090392;28;20674;-54
2022/08/22 03:12:49;;;;;;;9.80;4.72;;;14.00;99.90;;;;;;5073385;28;20051;-54
2022/08/22 03:15:26;;;;;;;7.13;5.05;;;14.00;99.90;;;;;;5087952;28;20017;-54
2022/08/22 03:18:18;;;;;;;7.00;5.03;;;14.00;99.90;;;;;;5083993;28;20077;-55
2022/08/22 03:20:52;;;;;;;8.00;5.65;;;14.00;99.90;;;;;;5089449;28;20024;-54
2022/08/22 03:23:46;;;;;;;5.35;4.80;;;14.10;99.90;;;;;;5090018;28;20020;-54
2022/08/22 03:26:17;;;;;;;10.27;6.05;;;14.10;99.90;;;;;;5089950;28;20099;-55
2022/08/22 03:28:50;;;;;;;8.40;6.03;;;14.10;99.90;;;;;;5090261;28;20073;-54
2022/08/22 03:31:19;;;;;;;7.20;5.25;;;14.10;99.90;;;;;;5089229;28;20024;-54
2022/08/22 03:34:05;;;;;;;5.75;4.68;;;14.10;99.90;;;;;;5089834;28;20031;-54
2022/08/22 03:36:31;;;;;;;7.65;5.07;;;14.10;99.90;;;;;;5089751;28;20032;-54
2022/08/22 03:39:04;;;;;;;11.50;6.47;;;14.10;99.90;;;;;;5089678;28;20285;-54
2022/08/22 03:41:58;;;;;;;10.00;7.15;;;14.10;99.90;;;;;;5088883;28;20028;-54
2022/08/22 03:44:55;;;;;;;8.82;5.78;;;14.10;99.90;;;;;;5087834;28;20356;-54
2022/08/22 03:47:35;;;;;;;7.80;5.63;;;14.10;99.90;;;;;;5081174;28;20012;-54
2022/08/22 03:50:25;;;;;;;6.47;5.28;;;14.10;99.90;;;;;;5089898;28;20023;-54
2022/08/22 03:53:18;;;;;;;5.97;4.95;;;14.10;99.90;;;;;;5088964;28;20053;-54
2022/08/22 03:56:23;;;;;;;7.32;4.55;;;14.10;99.90;;;;;;5089828;28;20092;-54
2022/08/22 03:59:07;;;;;;;9.35;5.20;;;14.00;99.90;;;;;;5089547;28;20032;-54
2022/08/22 04:01:50;;;;;;;7.32;5.00;;;13.90;99.90;;;;;;5088939;28;20619;-55
2022/08/22 04:04:59;;;;;;;7.57;4.80;;;13.90;99.90;;;;;;5089450;28;20021;-54
2022/08/22 04:08:04;;;;;;;7.18;5.05;;;13.90;99.90;;;;;;5089238;28;20024;-54
2022/08/22 04:10:56;;;;;;;9.75;5.20;;;13.90;99.90;;;;;;5088903;28;20028;-54
2022/08/22 04:13:46;;;;;;;6.15;4.80;;;13.80;99.90;;;;;;5087383;28;20111;-54
2022/08/22 04:16:32;;;;;;;8.43;5.13;;;13.80;99.90;;;;;;5079151;28;20120;-54
2022/08/22 04:19:14;;;;;;;7.38;5.00;;;13.70;99.90;;;;;;5088838;28;20028;-54
2022/08/22 04:22:11;;;;;;;12.77;5.72;;;13.70;99.90;;;;;;5087071;28;20425;-54
2022/08/22 04:25:11;;;;;;;8.23;6.03;;;13.80;99.90;;;;;;5088947;28;20043;-54
2022/08/22 04:27:43;;;;;;;8.02;5.78;;;13.80;99.90;;;;;;5088966;28;20012;-54
2022/08/22 04:30:21;;;;;;;11.07;5.60;;;13.80;99.90;;;;;;5088252;28;20442;-54
2022/08/22 04:33:13;;;;;;;8.80;5.50;;;13.80;99.90;;;;;;5088164;28;20047;-52
2022/08/22 04:35:45;;;;;;;8.95;5.30;;;13.80;99.90;;;;;;5088716;28;20031;-54
2022/08/22 04:38:35;;;;;;;7.25;5.78;;;13.80;99.90;;;;;;5089122;28;20115;-54
2022/08/22 04:41:23;;;;;;;11.75;5.65;;;13.80;99.90;;;;;;5088050;28;20413;-54
2022/08/22 04:44:11;;;;;;;7.00;5.63;;;13.70;99.90;;;;;;5088643;28;20028;-55
2022/08/22 04:46:58;;;;;;;10.80;6.30;;;13.70;99.90;;;;;;5068495;28;20533;-54
2022/08/22 04:49:37;;;;;;;12.20;6.53;;;13.80;99.90;;;;;;5068484;28;20017;-54
2022/08/22 04:52:14;;;;;;;6.90;5.18;;;13.80;99.90;;;;;;5067729;28;20041;-54
2022/08/22 04:54:48;;;;;;;10.68;6.07;;;13.80;99.90;;;;;;5066921;28;20043;-54
2022/08/22 04:57:43;;;;;;;8.60;6.43;;;13.80;99.90;;;;;;5068441;28;20099;-52
2022/08/22 05:00:10;;;;;;;12.68;6.22;;;13.70;99.90;;;;;;5066973;28;20024;-53
2022/08/22 05:02:39;;;;;;;13.13;6.93;;;13.80;99.90;;;;;;5067784;28;20474;-52
2022/08/22 05:05:11;;;;;;;8.65;6.38;;;13.90;99.90;;;;;;5068211;28;20024;-53
2022/08/22 05:07:48;;;;;;;10.18;6.63;;;14.00;99.90;;;;;;5068620;28;20074;-52
2022/08/22 05:10:34;;;;;;;8.90;6.05;;;14.00;99.90;;;;;;5071742;28;20533;-54
2022/08/22 05:13:22;;;;;;;8.93;5.78;;;14.10;99.90;;;;;;5070858;28;20445;-52
2022/08/22 05:15:55;;;;;;;11.57;6.53;;;14.10;99.90;;;;;;5079252;28;20020;-52
2022/08/22 05:18:45;;;;;;;11.57;6.45;;;14.20;99.90;;;;;;5090432;28;20040;-53
2022/08/22 05:21:13;;;;;;;10.13;6.90;;;14.30;99.90;;;;;;5092329;28;20089;-53
2022/08/22 05:23:43;;;;;;;9.20;6.55;;;14.30;99.90;;;;;;5093161;28;20031;-53
2022/08/22 05:26:11;;;;;;;8.25;5.28;;;14.40;99.90;;;;;;5074410;28;20020;-55
2022/08/22 05:28:46;;;;;;;9.20;6.32;;;14.40;99.90;;;;;;5092643;28;20012;-53
2022/08/22 05:31:15;;;;;;;9.57;6.18;;;14.50;99.90;;;;;;5091553;28;20479;-54
2022/08/22 05:33:46;;;;;;;7.90;5.70;;;14.60;99.90;;;;;;5091982;28;20034;-54
2022/08/22 05:36:47;;;;;;;8.07;6.28;;;14.60;99.90;;;;;;5092106;28;20028;-54
2022/08/22 05:39:17;;;;;;;9.68;5.82;;;14.70;99.90;;;;;;5091877;28;20449;-55
2022/08/22 05:41:43;;;;;;;7.60;5.70;;;14.70;99.90;;;;;;5091200;28;20052;-54
2022/08/22 05:44:22;;;;;;;10.05;6.43;;;14.80;99.90;;;;;;5090737;28;20538;-53
2022/08/22 05:46:50;;;;;;;7.47;5.57;;;14.90;99.90;;;;;;5073190;28;20324;-55
2022/08/22 05:49:21;;;;;;;11.82;5.93;;;14.90;99.90;;;;;;5071740;28;20028;-54
2022/08/22 05:51:49;;;;;;;8.23;5.70;;;15.00;99.90;;;;;;5069809;28;20044;-54
2022/08/22 05:54:19;;;;;;;10.32;6.32;;;15.00;99.90;;;;;;5072001;28;20024;-54
2022/08/22 05:56:53;;;;;;;8.50;5.50;;;15.10;99.90;;;;;;5071821;28;20428;-55
2022/08/22 05:59:26;;;;;;;7.25;5.38;;;15.20;99.90;;;;;;5071388;28;20251;-55
2022/08/22 06:02:11;;;;;;;9.57;5.40;;;15.20;99.90;;;;;;5070687;28;20488;-54
2022/08/22 06:04:40;;;;;;;7.82;4.80;;;15.30;99.90;;;;;;5071485;28;20503;-55
2022/08/22 06:07:16;;;;;;;7.78;5.53;;;15.40;99.90;;;;;;5069917;28;20047;-54
2022/08/22 06:09:47;;;;;;;10.60;5.82;;;15.40;99.90;;;;;;5070987;28;20084;-53
2022/08/22 06:12:12;;;;;;;10.35;5.65;;;15.50;99.90;;;;;;5070643;28;20507;-55
2022/08/22 06:14:46;;;;;;;7.13;5.28;;;15.60;99.90;;;;;;5073588;28;20035;-55
2022/08/22 06:17:30;;;;;;;10.55;5.53;;;15.60;99.90;;;;;;5081486;28;20260;-53
2022/08/22 06:19:56;;;;;;;9.05;4.85;;;15.70;99.90;;;;;;5091190;28;20020;-54
2022/08/22 06:22:30;;;;;;;8.93;5.65;;;15.70;99.90;;;;;;5090446;28;20124;-55
2022/08/22 06:25:11;;;;;;;9.90;5.15;;;15.80;99.90;;;;;;5090861;28;20026;-55
2022/08/22 06:27:37;;;;;;;7.28;4.85;;;15.90;99.90;;;;;;5091266;28;20047;-55
2022/08/22 06:30:05;;;;;;;6.30;4.22;;;16.00;99.90;;;;;;5090777;28;20383;-54
2022/08/22 06:32:33;;;;;;;6.65;4.40;;;16.00;99.90;;;;;;5090364;28;20035;-55
2022/08/22 06:35:06;;;;;;;7.30;4.80;;;16.10;99.90;;;;;;5090942;28;20039;-55
2022/08/22 06:37:36;;;;;;;6.57;4.70;;;16.20;99.90;;;;;;5090754;28;20036;-54
2022/08/22 06:40:06;;;;;;;6.95;4.70;;;16.30;99.90;;;;;;5090879;28;20567;-55
2022/08/22 06:42:36;;;;;;;8.77;4.80;;;16.40;99.90;;;;;;5090216;28;20125;-54
2022/08/22 06:45:07;;;;;;;4.95;4.18;;;16.50;99.90;;;;;;5089533;28;20448;-55
2022/08/22 06:47:43;;;;;;;9.23;5.43;;;16.60;99.90;;;;;;5082322;28;20096;-54
2022/08/22 06:50:13;;;;;;;9.35;4.95;;;16.70;99.90;;;;;;5090875;28;20118;-55
2022/08/22 06:53:07;;;;;;;10.40;5.60;;;16.80;99.90;;;;;;5089006;28;20112;-55
2022/08/22 06:55:36;;;;;;;6.90;4.88;;;16.90;99.90;;;;;;5090705;28;20051;-55
2022/08/22 06:58:06;;;;;;;9.05;4.80;;;17.00;99.90;;;;;;5090326;28;20051;-55
2022/08/22 07:00:35;;;;;;;7.45;5.00;;;17.10;99.90;;;;;;5088856;28;20035;-55
2022/08/22 07:03:14;;;;;;;4.95;4.18;;;17.30;99.90;;;;;;5090434;28;20391;-54
2022/08/22 07:05:41;;;;;;;8.13;4.28;;;17.40;99.90;;;;;;5090253;28;20023;-56
2022/08/22 07:08:10;;;;;;;8.90;4.85;;;17.50;99.90;;;;;;5090336;28;20039;-55
2022/08/22 07:10:43;;;;;;;5.82;3.95;;;17.50;99.90;;;;;;5089808;28;20035;-55
2022/08/22 07:13:15;;;;;;;8.70;4.50;;;17.60;99.90;;;;;;5090350;28;20032;-55
2022/08/22 07:15:41;;;;;;;12.35;4.65;;;17.80;99.90;;;;;;5084461;28;20499;-55
2022/08/22 07:18:16;;;;;;;10.18;4.13;;;17.90;99.90;;;;;;5086074;28;20043;-54
2022/08/22 07:20:45;;;;;;;9.98;4.18;;;18.00;99.90;;;;;;5089164;28;20030;-55
2022/08/22 07:23:22;;;;;;;12.25;4.40;;;18.10;99.90;;;;;;5090020;28;20024;-55
2022/08/22 07:25:58;;;;;;;9.27;4.40;;;18.20;99.90;;;;;;5089903;28;20023;-53
2022/08/22 07:28:43;;;;;;;7.07;4.13;;;18.30;99.90;;;;;;5090060;28;20070;-56
2022/08/22 07:31:35;;;;;;;8.20;4.38;;;18.40;99.90;;;;;;5089037;28;20097;-55
2022/08/22 07:34:25;;;;;;;6.03;3.67;;;18.60;99.90;;;;;;5089926;28;20024;-56
2022/08/22 07:37:04;;;;;;;7.38;3.60;;;18.70;99.90;;;;;;5088475;28;20445;-54
2022/08/22 07:39:34;;;;;;;5.32;4.07;;;18.90;99.90;;;;;;5089683;28;20025;-55
2022/08/22 07:42:15;;;;;;;6.23;3.63;;;19.00;99.90;;;;;;5088945;28;20393;-55
2022/08/22 07:45:01;;;;;;;10.50;3.60;;;19.10;99.90;;;;;;5086937;28;20277;-54
2022/08/22 07:47:40;;;;;;;5.93;3.47;;;19.30;99.90;;;;;;5080993;28;20103;-54
2022/08/22 07:50:11;;;;;;;6.22;3.97;;;19.40;99.90;;;;;;5089561;28;20070;-54
2022/08/22 07:52:41;;;;;;;6.25;3.58;;;19.60;99.90;;;;;;5089238;28;20020;-54
2022/08/22 07:55:23;;;;;;;6.43;3.60;;;19.80;99.90;;;;;;5089899;28;20479;-54
2022/08/22 07:58:02;;;;;;;5.82;3.58;;;20.00;99.90;;;;;;5089461;28;20781;-54
2022/08/22 08:00:29;;;;;;;6.97;2.85;;;20.30;99.90;;;;;;5089226;28;20384;-54
2022/08/22 08:03:03;;;;;;;5.38;2.88;;;20.70;99.90;;;;;;5089044;28;20067;-54
2022/08/22 08:05:35;;;;;;;5.95;2.80;;;21.50;99.90;;;;;;5089483;28;20383;-55
2022/08/22 08:08:07;;;;;;;4.90;2.70;;;22.80;99.90;;;;;;5089415;28;20099;-56
2022/08/22 08:10:38;;;;;;;5.10;2.20;;;24.00;97.30;;;;;;5088749;28;20363;-55
2022/08/22 08:13:13;;;;;;;5.45;2.47;;;25.50;93.90;;;;;;5089586;28;20112;-55
2022/08/22 08:15:41;;;;;;;4.43;2.35;;;27.00;91.00;;;;;;5084303;28;20016;-56
2022/08/22 08:18:20;;;;;;;2.53;2.03;;;27.90;83.10;;;;;;5083728;28;20035;-55
2022/08/22 08:20:53;;;;;;;4.28;2.20;;;29.00;81.50;;;;;;5088563;28;20020;-56
2022/08/22 08:23:20;;;;;;;3.22;2.30;;;30.30;74.00;;;;;;5088193;28;20031;-55
2022/08/22 08:25:51;;;;;;;3.67;2.17;;;30.90;70.30;;;;;;5089197;28;20395;-55
2022/08/22 08:28:33;;;;;;;4.35;2.70;;;31.40;66.60;;;;;;5087754;28;20032;-55
2022/08/22 08:31:07;;;;;;;4.68;2.35;;;32.00;64.30;;;;;;5088584;28;20688;-55
2022/08/22 08:33:34;;;;;;;5.05;2.00;;;32.50;62.80;;;;;;5088990;28;20087;-57
2022/08/22 08:36:10;;;;;;;9.50;2.10;;;33.30;62.30;;;;;;5088872;28;20051;-57
2022/08/22 08:38:54;;;;;;;4.43;2.00;;;34.20;60.20;;;;;;5088820;28;20024;-57
2022/08/22 08:41:34;;;;;;;6.60;2.08;;;35.10;57.90;;;;;;5088084;28;20031;-57
2022/08/22 08:44:04;;;;;;;3.80;1.92;;;35.30;54.30;;;;;;5088966;28;20047;-57
2022/08/22 08:46:48;;;;;;;6.03;1.98;;;35.90;55.00;;;;;;5077078;28;20020;-56
2022/08/22 08:49:26;;;;;;;2.97;1.90;;;36.20;52.80;;;;;;5087214;28;20028;-57
2022/08/22 08:52:12;;;;;;;4.27;1.60;;;36.50;53.60;;;;;;5088105;28;20510;-57
2022/08/22 08:54:43;;;;;;;3.28;1.50;;;36.60;51.00;;;;;;5088923;28;20034;-57
2022/08/22 08:57:17;;;;;;;5.07;1.60;;;37.40;49.40;;;;;;5088413;28;20032;-56
2022/08/22 08:59:59;;;;;;;3.42;1.77;;;37.30;48.90;;;;;;5088506;28;20111;-57
2022/08/22 09:02:54;;;;;;;5.55;2.08;;;37.50;49.10;;;;;;5086594;28;20483;-56
2022/08/22 09:05:57;;;;;;;7.50;1.95;;;38.40;47.30;;;;;;5088472;28;20029;-56
2022/08/22 09:09:00;;;;;;;3.55;1.80;;;39.30;45.40;;;;;;5088504;28;20028;-56
2022/08/22 09:11:49;;;;;;;3.78;1.55;;;39.40;43.10;;;;;;5087798;28;20032;-55
2022/08/22 09:14:24;;;;;;;1.67;1.30;;;39.00;42.20;;;;;;5086916;28;20028;-56
2022/08/22 09:17:31;;;;;;;3.47;1.67;;;39.60;42.10;;;;;;5079924;28;20042;-56
2022/08/22 09:20:20;;;;;;;4.40;1.67;;;38.80;42.10;;;;;;5088028;28;20028;-57
2022/08/22 09:23:19;;;;;;;4.80;1.50;;;38.80;43.00;;;;;;5087898;28;20031;-56
2022/08/22 09:25:54;;;;;;;2.90;1.40;;;39.30;42.40;;;;;;5088236;28;20020;-55
2022/08/22 09:28:41;;;;;;;2.17;1.30;;;39.50;42.90;;;;;;5088317;28;20035;-55
2022/08/22 09:31:12;;;;;;;2.10;1.40;;;39.70;40.50;;;;;;5087803;28;20103;-55
2022/08/22 09:33:54;;;;;;;6.13;2.65;;;39.90;41.00;;;;;;5088191;28;20035;-56
2022/08/22 09:36:30;;;;;;;2.83;1.70;;;39.80;39.80;;;;;;5088534;28;20070;-57
2022/08/22 09:39:03;;;;;;;2.85;1.77;;;40.30;39.50;;;;;;5088651;28;20055;-55
2022/08/22 09:41:56;;;;;;;4.57;1.90;;;40.00;38.30;;;;;;5087614;28;20099;-55
2022/08/22 09:44:49;;;;;;;4.63;1.60;;;40.90;37.80;;;;;;5085248;28;20137;-55
2022/08/22 09:47:54;;;;;;;7.78;2.10;;;40.40;38.10;;;;;;5076282;28;20024;-55
2022/08/22 09:50:31;;;;;;;3.08;1.50;;;40.40;37.80;;;;;;5060035;28;20037;-55
2022/08/22 09:53:10;;;;;;;4.68;1.33;;;40.80;38.10;;;;;;5067526;28;20021;-55
2022/08/22 09:55:58;;;;;;;3.42;1.50;;;40.60;38.50;;;;;;5069986;28;20389;-55
2022/08/22 09:58:42;;;;;;;2.63;1.43;;;40.10;37.40;;;;;;5071430;28;20052;-55
2022/08/22 10:01:29;;;;;;;4.28;1.50;;;40.00;39.00;;;;;;5070770;28;20289;-55
2022/08/22 10:04:13;;;;;;;2.78;1.40;;;40.20;38.40;;;;;;5071053;28;20028;-56
2022/08/22 10:07:30;;;;;;;1.58;1.10;;;40.50;38.20;;;;;;5071828;28;20163;-56
2022/08/22 10:10:07;;;;;;;5.10;1.60;;;41.30;37.30;;;;;;5053642;28;20059;-57
2022/08/22 10:12:48;;;;;;;3.50;1.70;;;42.00;36.40;;;;;;5069459;28;20035;-55
2022/08/22 10:15:25;;;;;;;5.20;1.40;;;41.70;37.30;;;;;;5078345;28;20024;-56
2022/08/22 10:18:06;;;;;;;3.05;1.60;;;41.20;36.70;;;;;;5084784;28;20421;-55
2022/08/22 10:20:46;;;;;;;4.07;1.50;;;41.70;36.10;;;;;;5091063;28;20048;-57
2022/08/22 10:23:45;;;;;;;3.17;1.55;;;41.30;36.90;;;;;;5091152;28;20024;-57
2022/08/22 10:26:28;;;;;;;4.07;1.48;;;41.10;37.90;;;;;;5089695;28;20118;-57
2022/08/22 10:29:14;;;;;;;2.47;2.00;;;41.20;37.20;;;;;;5090856;28;20502;-57
2022/08/22 10:31:51;;;;;;;2.95;1.63;;;41.30;37.40;;;;;;5089336;28;20514;-55
2022/08/22 10:34:23;;;;;;;4.05;1.70;;;41.90;37.20;;;;;;5090807;28;20537;-55
2022/08/22 10:37:14;;;;;;;5.38;1.85;;;40.80;37.60;;;;;;5089661;28;20478;-55
2022/08/22 10:39:50;;;;;;;4.13;1.48;;;39.80;37.80;;;;;;5091202;28;20020;-55
2022/08/22 10:42:25;;;;;;;5.22;1.60;;;38.80;37.90;;;;;;5090671;28;20031;-55
2022/08/22 10:45:22;;;;;;;4.57;1.77;;;38.50;39.40;;;;;;5089649;28;20012;-55
2022/08/22 10:47:57;;;;;;;4.03;1.50;;;39.10;38.20;;;;;;5076911;28;20040;-55
2022/08/22 10:50:31;;;;;;;5.50;1.83;;;36.70;39.00;;;;;;5091001;28;20108;-55
2022/08/22 10:55:49;;;;;;;3.08;1.70;;;35.60;42.80;;;;;;5090818;28;20081;-55
2022/08/22 10:58:23;;;;;;;4.40;1.42;;;36.50;41.60;;;;;;5090925;28;20573;-55
2022/08/22 11:00:53;;;;;;;5.43;1.50;;;37.70;40.20;;;;;;5089835;28;20032;-55
2022/08/22 11:03:24;;;;;;;;;;;38.10;40.50;;;;;;5090810;28;20071;-55
2022/08/22 11:05:53;;;;;;;2.47;1.90;;;39.60;38.20;;;;;;5090015;28;20271;-55
2022/08/22 11:08:31;;;;;;;;;;;39.90;38.50;;;;;;5090321;28;20058;-56
2022/08/22 11:11:27;;;;;;;6.03;1.43;;;38.60;38.20;;;;;;5089635;28;19904;-55
2022/08/22 11:14:11;;;;;;;1.67;1.38;;;37.00;39.20;;;;;;5090199;28;20024;-56
2022/08/22 11:17:01;;;;;;;5.85;1.48;;;35.60;41.10;;;;;;5081708;28;20278;-56
2022/08/22 11:19:53;;;;;;;1.95;1.40;;;35.90;43.20;;;;;;5089995;28;20040;-55
2022/08/22 11:22:30;;;;;;;3.45;1.38;;;36.90;41.80;;;;;;5089470;28;20039;-56
2022/08/22 11:25:15;;;;;;;3.45;1.73;;;37.30;41.30;;;;;;5072697;28;20035;-55
2022/08/22 11:27:48;;;;;;;2.78;1.35;;;38.50;39.90;;;;;;5069396;28;20033;-55
2022/08/22 11:30:35;;;;;;;4.25;1.33;;;40.30;36.80;;;;;;5068487;28;20036;-55
2022/08/22 11:33:38;;;;;;;4.63;1.55;;;40.70;37.00;;;;;;5069263;28;20031;-55
2022/08/22 11:36:10;;;;;;;6.90;1.50;;;41.00;36.20;;;;;;5069335;28;20421;-55
2022/08/22 11:39:07;;;;;;;3.60;1.27;;;40.50;36.80;;;;;;5069838;28;20040;-55
2022/08/22 11:41:44;;;;;;;3.10;1.48;;;39.60;36.10;;;;;;5068727;28;20460;-55
2022/08/22 11:44:16;;;;;;;6.22;1.83;;;37.20;38.50;;;;;;5068347;28;20028;-55
2022/08/22 11:46:44;;;;;;;2.70;1.35;;;36.70;38.30;;;;;;5070334;28;20107;-55
2022/08/22 11:49:31;;;;;;;3.53;1.33;;;37.10;39.30;;;;;;5068179;28;20048;-55
2022/08/22 11:52:21;;;;;;;3.20;1.50;;;37.50;38.30;;;;;;5069125;28;20066;-55
2022/08/22 11:55:16;;;;;;;1.35;1.25;;;38.10;39.50;;;;;;5069263;28;20035;-55
2022/08/22 11:57:47;;;;;;;2.47;1.33;;;39.40;36.70;;;;;;5069262;28;20263;-55
2022/08/22 12:00:31;;;;;;;1.05;0.90;;;39.70;35.70;;;;;;5068798;28;20126;-55
2022/08/22 12:03:15;;;;;;;1.75;1.52;;;39.50;34.80;;;;;;5068784;28;20021;-56
2022/08/22 12:05:56;;;;;;;3.88;1.25;;;38.80;35.00;;;;;;5069083;28;20021;-55
2022/08/22 12:08:27;;;;;;;3.15;1.10;;;38.00;35.80;;;;;;5069386;28;20287;-55
2022/08/22 12:11:03;;;;;;;3.17;1.35;;;37.40;37.30;;;;;;5068212;28;20029;-55
2022/08/22 12:13:34;;;;;;;1.52;1.33;;;37.10;37.40;;;;;;5068683;28;20040;-55
2022/08/22 12:16:16;;;;;;;2.88;1.33;;;37.60;38.30;;;;;;5075683;28;20571;-55
2022/08/22 12:18:54;;;;;;;1.17;1.08;;;36.70;37.70;;;;;;5049132;28;20188;-55
2022/08/22 12:21:40;;;;;;;2.22;1.50;;;36.00;39.40;;;;;;5048003;28;20384;-55
2022/08/22 12:24:28;;;;;;;1.80;1.30;;;36.40;38.60;;;;;;5048752;28;20025;-55
2022/08/22 12:27:10;;;;;;;4.38;1.40;;;36.20;40.00;;;;;;5048425;28;20037;-55
2022/08/22 12:29:57;;;;;;;3.45;1.55;;;35.80;39.30;;;;;;5048609;28;20021;-56
2022/08/22 12:32:47;;;;;;;2.25;1.65;;;36.00;40.20;;;;;;5048114;28;20021;-55
2022/08/22 12:35:36;;;;;;;6.20;1.60;;;35.90;38.50;;;;;;5048450;28;20061;-55
2022/08/22 12:38:37;;;;;;;4.83;1.67;;;35.70;38.70;;;;;;5048962;28;20029;-54
2022/08/22 12:41:27;;;;;;;2.05;1.40;;;35.60;38.20;;;;;;5046642;28;20487;-56
2022/08/22 12:44:17;;;;;;;2.35;1.38;;;35.10;38.90;;;;;;5048316;28;20029;-54
2022/08/22 12:46:45;;;;;;;3.20;1.60;;;35.10;39.40;;;;;;5069582;28;20103;-56
2022/08/22 12:49:20;;;;;;;5.15;1.92;;;35.40;39.10;;;;;;5068601;28;20058;-56
2022/08/22 12:52:09;;;;;;;3.33;1.70;;;35.20;40.50;;;;;;5067825;28;20029;-54
2022/08/22 12:54:53;;;;;;;4.82;1.73;;;35.00;39.70;;;;;;5068367;28;20115;-54
2022/08/22 12:58:00;;;;;;;2.45;1.58;;;34.70;41.50;;;;;;5068323;28;20079;-56
2022/08/22 13:00:34;;;;;;;3.35;1.67;;;34.10;41.50;;;;;;5062484;28;20044;-56
2022/08/22 13:03:12;;;;;;;3.67;1.33;;;33.30;42.10;;;;;;5068128;28;20097;-56
2022/08/22 13:05:43;;;;;;;2.67;1.60;;;33.20;42.50;;;;;;5068448;28;20107;-56
2022/08/22 13:08:20;;;;;;;3.33;1.45;;;33.00;42.60;;;;;;5068705;28;20012;-56
2022/08/22 13:11:02;;;;;;;6.20;2.08;;;32.50;42.60;;;;;;5067831;28;20012;-55
2022/08/22 13:13:36;;;;;;;6.30;2.03;;;31.90;43.40;;;;;;5068215;28;20048;-55
2022/08/22 13:16:07;;;;;;;4.13;2.10;;;31.40;44.00;;;;;;5076497;28;20066;-55
2022/08/22 13:18:44;;;;;;;4.78;2.60;;;31.20;44.60;;;;;;5088034;28;20879;-55
2022/08/22 13:21:13;;;;;;;3.63;1.80;;;31.00;45.10;;;;;;5086435;28;20036;-56
2022/08/22 13:23:45;;;;;;;4.47;1.97;;;31.40;45.30;;;;;;5086863;28;20480;-56
2022/08/22 13:26:26;;;;;;;5.50;1.75;;;31.30;43.80;;;;;;5088396;28;20051;-55
2022/08/22 13:29:17;;;;;;;4.35;1.88;;;30.90;44.40;;;;;;5088616;28;20662;-56
2022/08/22 13:31:49;;;;;;;5.32;2.25;;;30.60;45.40;;;;;;5091750;28;20049;-55
2022/08/22 13:34:39;;;;;;;5.55;2.28;;;30.90;44.90;;;;;;5090898;28;20475;-54
2022/08/22 13:37:10;;;;;;;5.05;2.72;;;30.70;46.10;;;;;;5092214;28;20103;-54
2022/08/22 13:39:40;;;;;;;5.22;1.90;;;30.50;45.50;;;;;;5092170;28;20119;-55
2022/08/22 13:42:06;;;;;;;5.32;1.70;;;30.40;45.40;;;;;;5091396;28;20035;-55
2022/08/22 13:44:40;;;;;;;3.30;1.75;;;30.20;45.70;;;;;;5090577;28;20074;-55
2022/08/22 13:47:10;;;;;;;3.00;1.67;;;30.20;45.50;;;;;;5082106;28;20110;-54
2022/08/22 13:49:37;;;;;;;;;;;30.20;46.40;;;;;;5092655;28;20103;-54
2022/08/22 13:52:26;;;;;;;6.03;1.88;;;30.40;46.10;;;;;;5091085;28;20473;-55
2022/08/22 13:55:00;;;;;;;2.40;1.77;;;30.80;46.40;;;;;;5090461;28;20479;-55
2022/08/22 13:57:34;;;;;;;4.07;2.03;;;31.10;45.80;;;;;;5091770;28;20049;-54
2022/08/22 14:00:18;;;;;;;2.75;1.60;;;31.50;46.00;;;;;;5091852;28;20035;-54
2022/08/22 14:03:02;;;;;;;5.00;1.83;;;31.70;44.80;;;;;;5091195;28;20020;-56